Main page
Satellite images 10-day forecastsClimateMarine weather Cyclones Lightning AirportsFAQ Newsletter About
Weather : Europe Africa North America South America Asia Australia-Oceania Others
Languages Contact

Eleusina, Greece

latitude: 38-04N, longitude: 023-33E, elevation: 44 m


METAR: LGEL 291520Z 17010KT CAVOK 36/13 Q1005
TAF: LGEL 291100Z 2912/3012 18010KT 9999 FEW030 BECMG 2918/2920 VRB03KT

Time: 18:51 (15:51 UTC)

Current weather observation

The report was made 31 minutes ago, at 15:20 UTC
Wind 10 kt from the South
Temperature 36°C
Humidity 25%
Pressure 1005 hPa
Visibility 10 km or more
no clouds below 1500 m and no cumulonimbus

Change units

Forecast

The report was made 4 hours and 51 minutes ago, at 11:00 UTC
Forecast valid from 29 at 12 UTC to 30 at 12 UTC
Wind 10 kt from the South
Visibility 10 km or more
Few clouds at a height of 3000 ft
Becoming
from 29 at 18 UTC to 29 at 20 UTC
Wind 3 kt from variable directions
The information on this site is subject to a disclaimer
Weather : Europe Africa North America South America Asia Australia-Oceania Others
Satellite images 10-day forecastsClimateMarine weather Cyclones Lightning AirportsFAQ Languages Contact Newsletter About